ADDS METAR Data INFO
IDs: Format: Raw Decoded Include TAF

Data at: 1306 UTC 11 Dec 2017

KMQY 111256Z 17008KT 10SM CLR M04/M05 A3016 RMK AO2 SLP226 T10391050
KMQY 111156Z AUTO 00000KT 10SM CLR M04/M06 A3016 RMK AO2 SLP222 T10441061 11011 21044 56005
KMQY 111056Z AUTO 00000KT 10SM CLR M04/M05 A3017 RMK AO2 SLP221 T10441050
KMQY 110956Z AUTO 00000KT 10SM CLR M04/M06 A3017 RMK AO2 SLP216 T10391056
KMQY 110856Z AUTO 00000KT 10SM CLR M02/M04 A3018 RMK AO2 SLP214 T10221044 56001
KMQY 110756Z AUTO 00000KT 10SM CLR M02/M05 A3018 RMK AO2 SLP215 T10221050
KMQY 110656Z AUTO 00000KT 10SM CLR M02/M04 A3018 RMK AO2 SLP213 T10171044
KMQY 110556Z AUTO 00000KT 10SM CLR M02/M05 A3018 RMK AO2 SLP222 T10221050 10056 21022 400891072 58001
KMQY 110456Z AUTO 14005KT 10SM CLR 01/M05 A3020 RMK AO2 SLP224 T00061050
KMQY 110356Z AUTO 13004KT 10SM CLR 01/M06 A3019 RMK AO2 SLP229 T00061056
KMQY 110256Z AUTO 16004KT 10SM CLR 02/M05 A3019 RMK AO2 SLP229 T00221050 51013
KMQY 110156Z AUTO 18004KT 10SM CLR 03/M06 A3019 RMK AO2 SLP234 T00281056
KMQY 110056Z AUTO 18004KT 10SM CLR 03/M06 A3017 RMK AO2 SLP234 T00281061
KMQY 102356Z 19004KT 10SM CLR 06/M06 A3015 RMK AO2 SLP219 T00561061 10089 20056 53000
KMQY 102256Z 20005KT 10SM CLR 07/M06 A3013 RMK AO2 SLP209 T00671061
KMQY 102156Z 21009KT 10SM CLR 08/M06 A3014 RMK AO2 SLP201 T00831061
KMQY 102056Z 20009G15KT 10SM CLR 09/M07 A3015 RMK AO2 SLP205 T00891067 56025
KMQY 101956Z 20009KT 10SM CLR 09/M07 A3017 RMK AO2 SLP213 T00891072
KMQY 101856Z 23008G15KT 10SM CLR 08/M07 A3019 RMK AO2 SLP226 T00781067
KMQY 101756Z 22008KT 10SM CLR 06/M06 A3023 RMK AO2 SLP241 T00611056 10061 21072 58024
KMQY 101656Z 22010KT 10SM CLR 05/M06 A3026 RMK AO2 SLP254 T00501061
KMQY 101556Z 20006KT 10SM CLR 03/M06 A3028 RMK AO2 SLP265 T00281061
KMQY 101456Z 18005KT 10SM CLR 00/M06 A3030 RMK AO2 SLP277 T00001056 50008
KMQY 101356Z 13003KT 10SM CLR M03/M07 A3030 RMK AO2 SLP286 T10331067
KMQY 101256Z 00000KT 10SM CLR M06/M08 A3030 RMK AO2 SLP292 T10561078
KMQY 101156Z AUTO 17003KT 10SM CLR M06/M08 A3028 RMK AO2 SLP282 T10611078 11022 21067 53006
KMQY 101056Z AUTO 00000KT 10SM CLR M06/M08 A3027 RMK AO2 SLP278 T10611078
KMQY 100956Z AUTO 00000KT 10SM CLR M04/M08 A3025 RMK AO2 SLP266 T10441078
KMQY 100856Z AUTO 00000KT 10SM CLR M04/M08 A3026 RMK AO2 SLP266 T10391078 51009
KMQY 100756Z AUTO 27005KT 10SM CLR M04/M08 A3025 RMK AO2 SLP265 T10391078
KMQY 100656Z AUTO 27005KT 10SM CLR M04/M08 A3024 RMK AO2 SLP258 T10441078
KMQY 100556Z AUTO 31003KT 10SM CLR M03/M07 A3023 RMK AO2 SLP250 T10281072 10017 21039 400391078 51013
KMQY 100456Z AUTO 28005KT 10SM CLR M02/M07 A3023 RMK AO2 SLP247 T10221072
KMQY 100256Z AUTO 29009KT 10SM OVC050 01/M07 A3019 RMK AO2 SLP231 T00061072 51017
KMQY 100156Z AUTO 29009KT 10SM BKN055 01/M07 A3018 RMK AO2 SLP234 T00061067